Terminal Aerodrome Forecast
Issued by NWS Bismarck, ND

Home | Current Version | Previous Version | Graphics & Text | Print | Product List | Glossary On
Versions: 1 2 3 4 5 6 7 8 9 10 11 12 13 14 15
000
FTUS43 KBIS 091400 AAA
TAFISN
TAF AMD
KISN 091444Z 0915/1012 00000KT 3SM FU SCT035
     FM091600 15007KT 5SM FU FEW050
     FM100600 17012KT P6SM SCT080 SCT250=

USA.gov is the U.S. government's official web portal to all federal, state and local government web resources and services.